Ocean Navigator — WSC2552 — position and weather

sailwx.info

Track history (hours):
 
Tides and Currents Weather Stations Pressure Air Temp Water Temp Dewpoint Dewpoint Depression Visibility Wind Speed Wind Dir Waves Ship Positions

Ocean Navigator

Owner: OCEAN NAVIGATOR INC, SEATTLE, WA. More information available from US FCC via Universal Licensing System and Coast Guard Vessel Documentation Center.

Last reported at 2016-May-29 01:33 UTC. Time now 2016-May-29 02:00 UTC.
Position N 50°60' W 127°36'.

Type: Tow > 200 m length. MMSI: 366358000.

Date/timePositionNaut miles runAvg speedWind from/ knotsBaromVisibWave heightAir tempDewpointWater temp
2016-May-29 01:33N 50°60' W 127°36'7 7.4
2016-May-29 00:33N 50°56' W 127°26'5 5.2
2016-May-28 23:33N 50°52' W 127°20'8 7.7
2016-May-28 22:33N 50°47' W 127°11'19 8.2
2016-May-28 20:16N 50°37' W 126°46'55 8.1
2016-May-28 13:29N 50°19' W 125°25'8 8.7
2016-May-28 12:33N 50°11' W 125°22'8 8.1
2016-May-28 11:33N 50°04' W 125°15'7 6.7
2016-May-28 10:33N 49°58' W 125°10'5 4.8
2016-May-28 09:33N 49°55' W 125°04'5 4.5
2016-May-28 08:33N 49°52' W 124°59'4 4.0
2016-May-28 07:32N 49°50' W 124°54'4 3.7
2016-May-28 06:33N 49°47' W 124°49'4 4.0
2016-May-28 05:33N 49°45' W 124°45'5 5.2
2016-May-28 04:34N 49°41' W 124°39'7 6.8
2016-May-28 03:28N 49°37' W 124°29'8 8.2
2016-May-28 02:32N 49°33' W 124°19'9 9.0
2016-May-28 01:33N 49°28' W 124°08'9 8.4
2016-May-28 00:29N 49°23' W 123°57'8 8.5
2016-May-27 23:31N 49°18' W 123°47'8 8.1
2016-May-27 22:33N 49°13' W 123°38'8 7.7
2016-May-27 21:33N 49°08' W 123°28'8 7.9
2016-May-27 20:33N 49°03' W 123°19'8 7.6
2016-May-27 19:33N 48°58' W 123°11'7 7.3
2016-May-27 18:33N 48°53' W 123°02'7 7.3
2016-May-27 17:33N 48°48' W 122°54'8 7.7
2016-May-27 16:33N 48°44' W 122°45'7 7.0
2016-May-27 15:33N 48°37' W 122°45'8 7.8
2016-May-27 14:33N 48°29' W 122°44'30 7.4
2016-May-27 10:31N 47°59' W 122°36'8 8.9
2016-May-27 09:33N 47°52' W 122°28'9 8.8
2016-May-27 08:33N 47°44' W 122°26'9 8.9
2016-May-27 07:33N 47°35' W 122°27'9 9.0
2016-May-27 06:33N 47°26' W 122°31'8 8.3
2016-May-27 05:32N 47°18' W 122°33'7 7.5
2016-May-27 04:33N 47°11' W 122°37'3 0.4
2016-May-26 20:22N 47°08' W 122°39'1 1.6
2016-May-26 19:33N 47°09' W 122°39'8 8.0
2016-May-26 18:34N 47°16' W 122°33'7 7.3
2016-May-26 17:33N 47°24' W 122°32'9 9.0
2016-May-26 16:34N 47°32' W 122°28'5 5.4
2016-May-26 15:34N 47°36' W 122°22'0 0.2
2016-May-26 14:34N 47°36' W 122°22'4 4.4
2016-May-26 13:33N 47°40' W 122°24'  
2016-May-22 00:33N 47°40' W 122°24'6 6.3
2016-May-21 23:33N 47°34' W 122°21'1 0.8
2016-May-21 22:33N 47°33' W 122°21'4 3.7
2016-May-21 21:33N 47°37' W 122°23'8 7.6
2016-May-21 20:33N 47°44' W 122°27'8 8.1
2016-May-21 19:33N 47°52' W 122°29'8 7.4
2016-May-21 18:32N 47°58' W 122°35'26 5.2
2016-May-21 13:30N 48°23' W 122°45'8 8.8
2016-May-21 12:33N 48°31' W 122°45'8 8.4
2016-May-21 11:33N 48°40' W 122°44'8 7.7
2016-May-21 10:32N 48°46' W 122°50'9 8.7
2016-May-21 09:32N 48°51' W 123°01'8 8.4
2016-May-21 08:33N 48°56' W 123°11'8 8.3
2016-May-21 07:34N 49°02' W 123°20'6 6.4
2016-May-21 06:33N 49°08' W 123°15'7 6.9
2016-May-21 05:33N 49°07' W 123°05'2 2.4
2016-May-21 04:33N 49°09' W 123°02'0 0.0
2016-May-21 03:33N 49°09' W 123°02'0 0.0
2016-May-21 02:33N 49°09' W 123°02'0 0.0
2016-May-21 01:33N 49°09' W 123°02'0 0.0
2016-May-21 00:33N 49°09' W 123°02'0 0.0
2016-May-20 23:33N 49°09' W 123°02'0 0.0
2016-May-20 22:33N 49°09' W 123°02'0 0.0
2016-May-20 21:33N 49°09' W 123°02'0 0.0
2016-May-20 20:33N 49°09' W 123°02'0 0.0
2016-May-20 19:33N 49°09' W 123°02'0 0.0
2016-May-20 18:33N 49°09' W 123°02'0 0.0
2016-May-20 17:33N 49°09' W 123°02'0 0.0
2016-May-20 16:33N 49°09' W 123°02'0 0.0
2016-May-20 15:33N 49°09' W 123°02'0 0.0
2016-May-20 14:33N 49°09' W 123°02'0 0.0
2016-May-20 13:33N 49°09' W 123°02'0 0.0
2016-May-20 12:33N 49°09' W 123°02'0 0.0
2016-May-20 11:33N 49°09' W 123°02'0 0.0
2016-May-20 10:33N 49°09' W 123°02'3 2.8
2016-May-20 09:33N 49°07' W 123°05'7 6.9
2016-May-20 08:33N 49°07' W 123°16'5 5.3
2016-May-20 07:33N 49°02' W 123°16'1010.0
2016-May-20 06:33N 48°55' W 123°05'19 9.6
2016-May-20 04:33N 48°42' W 122°43'9 8.7
2016-May-20 03:33N 48°33' W 122°45'10 9.6
2016-May-20 02:33N 48°24' W 122°44'19 8.6
2016-May-20 00:20N 48°05' W 122°38'7 9.1
2016-May-19 23:33N 47°58' W 122°35'9 9.1
2016-May-19 22:33N 47°51' W 122°27'9 9.3
2016-May-19 21:33N 47°42' W 122°27'8 7.8
2016-May-19 20:34N 47°35' W 122°22'3 3.0
2016-May-19 19:33N 47°37' W 122°24'3 2.8
2016-May-19 18:33N 47°40' W 122°23'1 0.9
2016-May-19 17:33N 47°39' W 122°22'0 0.0
2016-May-19 16:33N 47°39' W 122°22'0 0.0
2016-May-19 15:33N 47°39' W 122°22'  
Track history (hours):
 
Tides and Currents Weather Stations Pressure Air Temp Water Temp Dewpoint Dewpoint Depression Visibility Wind Speed Wind Dir Waves Ship Positions

Ocean Navigator

Owner: OCEAN NAVIGATOR INC, SEATTLE, WA. More information available from US FCC via Universal Licensing System and Coast Guard Vessel Documentation Center.

Last reported at 2016-May-29 01:33 UTC. Time now 2016-May-29 02:00 UTC.
Position N 50°60' W 127°36'.

Type: Tow > 200 m length. MMSI: 366358000.

Date/timePositionNaut miles runAvg speedWind from/ knotsBaromVisibWave heightAir tempDewpointWater temp
2016-May-29 01:33N 50°60' W 127°36'7 7.4
2016-May-29 00:33N 50°56' W 127°26'5 5.2
2016-May-28 23:33N 50°52' W 127°20'8 7.7
2016-May-28 22:33N 50°47' W 127°11'19 8.2
2016-May-28 20:16N 50°37' W 126°46'55 8.1
2016-May-28 13:29N 50°19' W 125°25'8 8.7
2016-May-28 12:33N 50°11' W 125°22'8 8.1
2016-May-28 11:33N 50°04' W 125°15'7 6.7
2016-May-28 10:33N 49°58' W 125°10'5 4.8
2016-May-28 09:33N 49°55' W 125°04'5 4.5
2016-May-28 08:33N 49°52' W 124°59'4 4.0
2016-May-28 07:32N 49°50' W 124°54'4 3.7
2016-May-28 06:33N 49°47' W 124°49'4 4.0
2016-May-28 05:33N 49°45' W 124°45'5 5.2
2016-May-28 04:34N 49°41' W 124°39'7 6.8
2016-May-28 03:28N 49°37' W 124°29'8 8.2
2016-May-28 02:32N 49°33' W 124°19'9 9.0
2016-May-28 01:33N 49°28' W 124°08'9 8.4
2016-May-28 00:29N 49°23' W 123°57'8 8.5
2016-May-27 23:31N 49°18' W 123°47'8 8.1
2016-May-27 22:33N 49°13' W 123°38'8 7.7
2016-May-27 21:33N 49°08' W 123°28'8 7.9
2016-May-27 20:33N 49°03' W 123°19'8 7.6
2016-May-27 19:33N 48°58' W 123°11'7 7.3
2016-May-27 18:33N 48°53' W 123°02'7 7.3
2016-May-27 17:33N 48°48' W 122°54'8 7.7
2016-May-27 16:33N 48°44' W 122°45'7 7.0
2016-May-27 15:33N 48°37' W 122°45'8 7.8
2016-May-27 14:33N 48°29' W 122°44'30 7.4
2016-May-27 10:31N 47°59' W 122°36'8 8.9
2016-May-27 09:33N 47°52' W 122°28'9 8.8
2016-May-27 08:33N 47°44' W 122°26'9 8.9
2016-May-27 07:33N 47°35' W 122°27'9 9.0
2016-May-27 06:33N 47°26' W 122°31'8 8.3
2016-May-27 05:32N 47°18' W 122°33'7 7.5
2016-May-27 04:33N 47°11' W 122°37'3 0.4
2016-May-26 20:22N 47°08' W 122°39'1 1.6
2016-May-26 19:33N 47°09' W 122°39'8 8.0
2016-May-26 18:34N 47°16' W 122°33'7 7.3
2016-May-26 17:33N 47°24' W 122°32'9 9.0
2016-May-26 16:34N 47°32' W 122°28'5 5.4
2016-May-26 15:34N 47°36' W 122°22'0 0.2
2016-May-26 14:34N 47°36' W 122°22'4 4.4
2016-May-26 13:33N 47°40' W 122°24'  
2016-May-22 00:33N 47°40' W 122°24'6 6.3
2016-May-21 23:33N 47°34' W 122°21'1 0.8
2016-May-21 22:33N 47°33' W 122°21'4 3.7
2016-May-21 21:33N 47°37' W 122°23'8 7.6
2016-May-21 20:33N 47°44' W 122°27'8 8.1
2016-May-21 19:33N 47°52' W 122°29'8 7.4
2016-May-21 18:32N 47°58' W 122°35'26 5.2
2016-May-21 13:30N 48°23' W 122°45'8 8.8
2016-May-21 12:33N 48°31' W 122°45'8 8.4
2016-May-21 11:33N 48°40' W 122°44'8 7.7
2016-May-21 10:32N 48°46' W 122°50'9 8.7
2016-May-21 09:32N 48°51' W 123°01'8 8.4
2016-May-21 08:33N 48°56' W 123°11'8 8.3
2016-May-21 07:34N 49°02' W 123°20'6 6.4
2016-May-21 06:33N 49°08' W 123°15'7 6.9
2016-May-21 05:33N 49°07' W 123°05'2 2.4
2016-May-21 04:33N 49°09' W 123°02'0 0.0
2016-May-21 03:33N 49°09' W 123°02'0 0.0
2016-May-21 02:33N 49°09' W 123°02'0 0.0
2016-May-21 01:33N 49°09' W 123°02'0 0.0
2016-May-21 00:33N 49°09' W 123°02'0 0.0
2016-May-20 23:33N 49°09' W 123°02'0 0.0
2016-May-20 22:33N 49°09' W 123°02'0 0.0
2016-May-20 21:33N 49°09' W 123°02'0 0.0
2016-May-20 20:33N 49°09' W 123°02'0 0.0
2016-May-20 19:33N 49°09' W 123°02'0 0.0
2016-May-20 18:33N 49°09' W 123°02'0 0.0
2016-May-20 17:33N 49°09' W 123°02'0 0.0
2016-May-20 16:33N 49°09' W 123°02'0 0.0
2016-May-20 15:33N 49°09' W 123°02'0 0.0
2016-May-20 14:33N 49°09' W 123°02'0 0.0
2016-May-20 13:33N 49°09' W 123°02'0 0.0
2016-May-20 12:33N 49°09' W 123°02'0 0.0
2016-May-20 11:33N 49°09' W 123°02'0 0.0
2016-May-20 10:33N 49°09' W 123°02'3 2.8
2016-May-20 09:33N 49°07' W 123°05'7 6.9
2016-May-20 08:33N 49°07' W 123°16'5 5.3
2016-May-20 07:33N 49°02' W 123°16'1010.0
2016-May-20 06:33N 48°55' W 123°05'19 9.6
2016-May-20 04:33N 48°42' W 122°43'9 8.7
2016-May-20 03:33N 48°33' W 122°45'10 9.6
2016-May-20 02:33N 48°24' W 122°44'19 8.6
2016-May-20 00:20N 48°05' W 122°38'7 9.1
2016-May-19 23:33N 47°58' W 122°35'9 9.1
2016-May-19 22:33N 47°51' W 122°27'9 9.3
2016-May-19 21:33N 47°42' W 122°27'8 7.8
2016-May-19 20:34N 47°35' W 122°22'3 3.0
2016-May-19 19:33N 47°37' W 122°24'3 2.8
2016-May-19 18:33N 47°40' W 122°23'1 0.9
2016-May-19 17:33N 47°39' W 122°22'0 0.0
2016-May-19 16:33N 47°39' W 122°22'0 0.0
2016-May-19 15:33N 47°39' W 122°22'  

Dump ship's entire track history